This is the latest recevied weather packets stored in our database for station/object SV9TNF-1. If no packets are shown the sender has not sent any weather packets the latest 1 day(s).
| Time | Temp. | Humidity | Pressure | Rain* | Wind** | Luminosity | Snow |
|---|---|---|---|---|---|---|---|
| 1777967879 | 22.22° C | 25% | 1006.1 hPa | 0 mm | 3.58 m/s, 147° | - | - |
| 1777967579 | 22.22° C | 25% | 1006.1 hPa | 0 mm | 6.26 m/s, 349° | - | - |
| 1777967279 | 21.67° C | 26% | 1006.1 hPa | 0 mm | 7.15 m/s, 199° | - | - |
| 1777966979 | 21.67° C | 26% | 1006.1 hPa | 0 mm | 4.47 m/s, 335° | - | - |
| 1777966679 | 21.11° C | 26% | 1006.1 hPa | 0 mm | 4.47 m/s, 353° | - | - |
| 1777966378 | 21.67° C | 26% | 1006.1 hPa | 0 mm | 4.02 m/s, 323° | - | - |
| 1777966079 | 21.11° C | 24% | 1006.1 hPa | 0 mm | 8.49 m/s, 345° | - | - |
| 1777965779 | 21.11° C | 29% | 1006.1 hPa | 0 mm | 4.02 m/s, 143° | - | - |
| 1777965478 | 20.56° C | 27% | 1006.1 hPa | 0 mm | 7.15 m/s, 334° | - | - |
| 1777965178 | 20.56° C | 32% | 1006.1 hPa | 0 mm | 4.92 m/s, 293° | - | - |
| 1777964878 | 20.56° C | 31% | 1006.1 hPa | 0 mm | 4.92 m/s, 357° | - | - |
| 1777964578 | 20.56° C | 31% | 1006.1 hPa | 0 mm | 4.02 m/s, 143° | - | - |
| 1777964278 | 20.56° C | 33% | 1006.1 hPa | 0 mm | 4.02 m/s, 329° | - | - |
| 1777963978 | 20° C | 37% | 1006.1 hPa | 0 mm | 2.68 m/s, 174° | - | - |
| 1777963678 | 20° C | 36% | 1006.1 hPa | 0 mm | 4.02 m/s, 183° | - | - |
| 1777963378 | 19.44° C | 38% | 1006.1 hPa | 0 mm | 4.92 m/s, 203° | - | - |
| 1777963077 | 19.44° C | 36% | 1006.1 hPa | 0 mm | 6.71 m/s, 245° | - | - |
| 1777962778 | 18.89° C | 38% | 1006.1 hPa | 0 mm | 6.26 m/s, 161° | - | - |
| 1777962477 | 18.89° C | 40% | 1006.1 hPa | 0 mm | 6.71 m/s, 216° | - | - |
| 1777962177 | 18.89° C | 43% | 1006.1 hPa | 0 mm | 5.36 m/s, 190° | - | - |
| 1777961877 | 18.33° C | 41% | 1006.1 hPa | 0 mm | 8.05 m/s, 268° | - | - |
| 1777961577 | 18.33° C | 46% | 1006.1 hPa | 0 mm | 5.36 m/s, 247° | - | - |
| 1777961277 | 18.33° C | 46% | 1005.8 hPa | 0 mm | 7.15 m/s, 215° | - | - |
| 1777960977 | 17.78° C | 48% | 1005.8 hPa | 0 mm | 8.05 m/s, 239° | - | - |
| 1777960677 | 17.78° C | 50% | 1005.8 hPa | 0 mm | 6.26 m/s, 183° | - | - |
* Rain latest hour (hover to see other rain measurements)
** Current wind speed in m/s (hover to see current wind gust speed)